Time;durP1;ratioP1;P1;durP2;ratioP2;P2;SDS_P1;SDS_P2;PMS_P1;PMS_P2;Temp;Humidity;BMP_temperature;BMP_pressure;BME280_temperature;BME280_humidity;BME280_pressure;Samples;Min_cycle;Max_cycle;Signal;HPM_P1;HPM_P2
2023/09/19 00:08:22;;;;;;;2.65;1.00;;;;;;;21.22;94.06;100175.22;20842386;28;20502;-60
2023/09/19 00:18:28;;;;;;;2.55;1.30;;;;;;;21.21;93.71;100191.63;20878937;28;20110;-59
2023/09/19 00:28:30;;;;;;;2.90;1.30;;;;;;;21.12;92.89;100178.13;20843332;28;20425;-60
2023/09/19 00:38:33;;;;;;;2.00;0.73;;;;;;;21.18;92.33;100209.03;20828514;28;20496;-59
2023/09/19 00:48:43;;;;;;;1.90;0.75;;;;;;;21.10;91.53;100219.91;20844147;28;20080;-60
2023/09/19 00:58:46;;;;;;;1.17;0.77;;;;;;;21.13;91.31;100235.78;20853039;28;20042;-60
2023/09/19 01:08:48;;;;;;;1.73;0.80;;;;;;;21.11;90.82;100244.09;20854335;28;20132;-60
2023/09/19 01:19:00;;;;;;;2.20;0.90;;;;;;;21.08;90.44;100249.00;20848312;28;20128;-60
2023/09/19 01:29:13;;;;;;;1.38;0.70;;;;;;;21.07;89.99;100252.72;20850722;28;20068;-60
2023/09/19 01:39:15;;;;;;;1.73;0.80;;;;;;;21.03;89.65;100254.94;20835655;28;20060;-60
2023/09/19 02:01:55;;;;;;;1.63;0.85;;;;;;;20.98;88.93;100260.00;20855035;28;20068;-60
2023/09/19 02:11:57;;;;;;;1.25;0.80;;;;;;;20.95;88.53;100272.03;20813094;28;20033;-60
2023/09/19 02:21:59;;;;;;;1.92;0.80;;;;;;;20.94;88.13;100270.34;20861987;28;20048;-59
2023/09/19 02:32:01;;;;;;;2.05;0.80;;;;;;;20.92;87.78;100260.69;20869261;28;20055;-60
2023/09/19 02:42:04;;;;;;;1.98;0.90;;;;;;;20.91;87.50;100284.22;20874084;28;20412;-60
2023/09/19 02:52:07;;;;;;;1.77;0.98;;;;;;;20.87;86.48;100288.28;20871175;28;20485;-60
2023/09/19 03:02:09;;;;;;;1.65;0.70;;;;;;;20.82;85.87;100277.97;20873728;28;20036;-60
2023/09/19 03:12:11;;;;;;;2.28;1.00;;;;;;;20.80;85.53;100295.41;20859668;28;20053;-60
2023/09/19 03:22:14;;;;;;;1.65;0.90;;;;;;;20.78;85.12;100292.00;20866741;28;20098;-60
2023/09/19 03:32:17;;;;;;;2.05;0.88;;;;;;;20.75;84.71;100262.56;20860535;28;20445;-60
2023/09/19 03:42:25;;;;;;;2.53;1.15;;;;;;;20.72;84.40;100283.53;20828254;28;20493;-60
2023/09/19 03:52:27;;;;;;;4.07;1.27;;;;;;;20.70;84.40;100290.97;20854561;28;20045;-59
2023/09/19 04:02:32;;;;;;;2.30;0.70;;;;;;;20.71;84.20;100286.41;20852913;28;20136;-59
2023/09/19 04:12:34;;;;;;;2.75;0.85;;;;;;;20.67;83.73;100285.06;20870629;28;20053;-60
2023/09/19 04:22:36;;;;;;;1.27;0.70;;;;;;;20.66;83.44;100300.44;20865002;28;20049;-60
2023/09/19 04:32:41;;;;;;;2.55;0.93;;;;;;;20.65;83.35;100311.44;20857497;28;20041;-60
2023/09/19 04:42:43;;;;;;;2.00;0.95;;;;;;;20.65;83.53;100316.84;20827121;28;20452;-59
2023/09/19 04:52:45;;;;;;;2.50;0.98;;;;;;;20.64;83.43;100329.50;20833392;28;20058;-60
2023/09/19 05:02:52;;;;;;;2.83;0.93;;;;;;;20.61;83.23;100323.59;20835769;28;20074;-59
2023/09/19 05:12:55;;;;;;;1.35;0.80;;;;;;;20.61;83.54;100343.38;20900455;28;20068;-60
2023/09/19 05:23:03;;;;;;;1.10;0.70;;;;;;;20.61;83.70;100353.34;20900887;28;20554;-59
2023/09/19 05:33:05;;;;;;;2.63;0.80;;;;;;;20.61;83.63;100335.25;20912353;28;20060;-60
2023/09/19 05:43:08;;;;;;;2.13;0.80;;;;;;;20.60;83.53;100357.91;20915058;28;20132;-60
2023/09/19 05:53:12;;;;;;;2.25;0.77;;;;;;;20.58;83.34;100352.69;20891778;28;20052;-59
2023/09/19 06:03:14;;;;;;;2.67;0.77;;;;;;;20.61;83.37;100370.41;20845030;28;20508;-60
2023/09/19 06:13:16;;;;;;;2.30;1.00;;;;;;;20.65;82.88;100389.88;20803149;28;20053;-60
2023/09/19 06:23:20;;;;;;;3.25;0.80;;;;;;;20.66;82.60;100392.38;20796551;28;20053;-60
2023/09/19 06:33:22;;;;;;;1.80;0.80;;;;;;;20.71;82.09;100400.00;20812544;28;20049;-60
2023/09/19 06:43:23;;;;;;;1.52;0.95;;;;;;;20.74;81.66;100410.50;20745033;28;20560;-60
2023/09/19 06:53:37;;;;;;;2.55;0.90;;;;;;;20.77;81.01;100409.28;20723403;28;20056;-60
2023/09/19 07:03:40;;;;;;;2.70;1.23;;;;;;;20.81;80.53;100402.59;20776862;28;20128;-60
2023/09/19 07:13:42;;;;;;;2.45;1.30;;;;;;;20.88;80.31;100400.91;20788300;28;20140;-60
2023/09/19 07:23:44;;;;;;;2.22;1.10;;;;;;;20.99;80.00;100407.81;20823489;28;20046;-60
2023/09/19 07:33:46;;;;;;;3.53;1.20;;;;;;;21.07;79.61;100415.97;20827894;28;20516;-60
2023/09/19 07:43:48;;;;;;;4.05;1.00;;;;;;;21.06;78.79;100430.50;20834743;28;20049;-60
2023/09/19 07:53:49;;;;;;;3.72;1.10;;;;;;;21.04;78.40;100431.69;20773257;28;20052;-60
2023/09/19 08:03:51;;;;;;;3.00;1.35;;;;;;;21.02;78.21;100423.75;20775713;28;20049;-61
2023/09/19 08:13:53;;;;;;;3.45;1.67;;;;;;;21.04;77.97;100427.13;20784763;28;20076;-60
2023/09/19 08:23:57;;;;;;;2.70;1.27;;;;;;;21.04;78.11;100427.13;20793859;28;20053;-60
2023/09/19 08:33:59;;;;;;;2.60;1.20;;;;;;;21.04;77.92;100426.28;20772738;28;20828;-60
2023/09/19 08:44:01;;;;;;;3.63;1.00;;;;;;;21.03;78.05;100409.22;20655753;28;20056;-59
2023/09/19 08:54:07;;;;;;;2.60;1.20;;;;;;;21.06;78.35;100418.81;20675772;28;20049;-59
2023/09/19 09:04:12;;;;;;;4.93;1.00;;;;;;;21.10;78.72;100420.19;20709741;28;20148;-59
2023/09/19 09:14:15;;;;;;;4.47;1.20;;;;;;;21.15;79.41;100417.81;20765857;28;20821;-59
2023/09/19 09:24:30;;;;;;;5.43;1.17;;;;;;;21.23;79.59;100425.94;20774817;28;20079;-59
2023/09/19 09:34:33;;;;;;;2.25;0.90;;;;;;;21.26;79.96;100427.44;20783989;28;20136;-59
2023/09/19 09:44:35;;;;;;;3.88;1.20;;;;;;;21.31;80.16;100430.50;20774117;28;20053;-59
2023/09/19 09:54:37;;;;;;;4.78;1.23;;;;;;;21.36;80.30;100411.03;20805741;28;20086;-59
2023/09/19 10:04:51;;;;;;;4.32;1.30;;;;;;;21.38;80.20;100417.13;20805031;28;20049;-59
2023/09/19 10:14:53;;;;;;;3.47;1.08;;;;;;;21.44;80.32;100419.16;20770420;28;20049;-59
2023/09/19 10:24:57;;;;;;;4.18;1.50;;;;;;;21.52;79.81;100407.47;20765197;28;20056;-58
2023/09/19 10:35:05;;;;;;;5.43;1.60;;;;;;;21.51;80.35;100406.59;20755109;28;20522;-59
2023/09/19 10:45:12;;;;;;;6.22;1.25;;;;;;;21.55;81.20;100415.25;20791304;28;20053;-59
2023/09/19 10:55:18;;;;;;;3.92;1.33;;;;;;;21.54;81.52;100400.00;20785912;28;20252;-59
2023/09/19 11:05:20;;;;;;;4.20;1.30;;;;;;;21.51;81.57;100379.50;20792843;28;20487;-59
2023/09/19 11:15:59;;;;;;;2.65;1.33;;;;;;;21.50;81.54;100387.84;20785753;28;20048;-59
2023/09/19 11:26:02;;;;;;;4.47;1.25;;;;;;;21.49;81.19;100364.47;20801574;28;20044;-59
2023/09/19 11:36:05;;;;;;;4.47;1.38;;;;;;;21.47;81.16;100361.09;20800326;28;20053;-59
2023/09/19 11:46:08;;;;;;;1.95;0.98;;;;;;;21.41;81.18;100351.78;20817281;28;20061;-59
2023/09/19 11:56:10;;;;;;;3.00;0.98;;;;;;;21.39;80.84;100337.59;20799195;28;20049;-59
2023/09/19 12:06:14;;;;;;;3.13;1.00;;;;;;;21.44;80.66;100356.84;20797664;28;20144;-59
2023/09/19 12:16:17;;;;;;;2.97;1.37;;;;;;;21.43;80.95;100330.81;20788545;28;20049;-59
2023/09/19 12:26:20;;;;;;;3.43;1.30;;;;;;;21.43;80.97;100325.38;20818230;28;20077;-58
2023/09/19 12:36:29;;;;;;;3.42;1.20;;;;;;;21.44;81.15;100324.38;20801769;28;20083;-59
2023/09/19 12:46:32;;;;;;;2.50;0.80;;;;;;;21.47;81.10;100315.06;20802375;28;20065;-59
2023/09/19 12:56:44;;;;;;;2.35;1.10;;;;;;;21.49;81.10;100294.91;20796296;28;20084;-59
2023/09/19 13:06:50;;;;;;;5.35;1.40;;;;;;;21.47;80.59;100286.09;20809444;28;20111;-59
2023/09/19 13:16:56;;;;;;;2.42;1.08;;;;;;;21.52;80.62;100308.09;20813175;28;20056;-59
2023/09/19 13:27:00;;;;;;;2.35;1.05;;;;;;;21.50;80.39;100295.75;20801537;28;20544;-58
2023/09/19 13:37:02;;;;;;;3.23;1.00;;;;;;;21.49;80.32;100292.19;20790684;28;20049;-59
2023/09/19 13:47:09;;;;;;;2.85;1.30;;;;;;;21.48;80.43;100298.63;20795256;28;20050;-59
2023/09/19 13:57:11;;;;;;;1.77;0.88;;;;;;;21.45;80.34;100307.09;20788583;28;20053;-59
2023/09/19 14:07:15;;;;;;;4.13;1.23;;;;;;;21.45;80.80;100293.56;20794227;28;20084;-58
2023/09/19 14:17:18;;;;;;;3.33;0.90;;;;;;;21.49;80.54;100294.91;20791717;28;20053;-58
2023/09/19 14:27:19;;;;;;;1.27;0.80;;;;;;;21.52;80.31;100282.88;20787575;28;20501;-58
2023/09/19 14:37:21;;;;;;;3.13;1.10;;;;;;;21.46;79.10;100295.25;20784187;28;20063;-63
2023/09/19 14:47:23;;;;;;;2.63;1.00;;;;;;;21.03;79.50;100278.44;20788338;28;20192;-64
2023/09/19 14:57:26;;;;;;;3.70;0.98;;;;;;;20.73;81.71;100271.69;20771859;28;20060;-60
2023/09/19 15:07:28;;;;;;;2.20;0.70;;;;;;;20.59;83.53;100256.16;20772548;28;20041;-63
2023/09/19 15:17:31;;;;;;;1.88;1.13;;;;;;;20.50;85.18;100259.88;20776920;28;20156;-62
2023/09/19 15:27:32;;;;;;;2.58;1.15;;;;;;;20.54;87.54;100275.56;20780466;28;20063;-61
2023/09/19 15:37:34;;;;;;;4.03;1.63;;;;;;;20.61;90.86;100275.75;20772159;28;20053;-60
2023/09/19 15:47:37;;;;;;;2.75;1.42;;;;;;;20.76;94.37;100272.34;20768837;28;20064;-62
2023/09/19 15:57:39;;;;;;;2.30;1.10;;;;;;;20.89;95.12;100285.41;20773091;28;20089;-62
2023/09/19 16:07:41;;;;;;;2.17;0.75;;;;;;;20.91;94.37;100281.53;20776204;28;20049;-62
2023/09/19 16:17:43;;;;;;;1.88;0.80;;;;;;;20.94;93.73;100285.72;20790769;28;20080;-62
2023/09/19 16:27:44;;;;;;;2.72;1.00;;;;;;;20.93;92.86;100290.31;20765798;28;20049;-63
2023/09/19 16:37:46;;;;;;;1.40;0.80;;;;;;;20.92;92.25;100320.22;20807353;28;20073;-63
2023/09/19 16:47:48;;;;;;;2.25;0.90;;;;;;;20.95;91.92;100299.09;20798891;28;20076;-63
2023/09/19 16:57:50;;;;;;;2.65;1.20;;;;;;;20.95;91.37;100296.41;20782456;28;20049;-63
2023/09/19 17:07:52;;;;;;;1.33;0.80;;;;;;;20.97;90.98;100301.63;20772828;28;20153;-63
2023/09/19 17:17:54;;;;;;;1.23;0.80;;;;;;;20.98;90.72;100306.88;20780597;28;20042;-63
2023/09/19 17:27:56;;;;;;;2.13;0.80;;;;;;;21.00;90.48;100314.84;20832431;28;20049;-63
2023/09/19 17:37:58;;;;;;;2.38;1.00;;;;;;;20.98;90.04;100315.00;20864809;28;20054;-63
2023/09/19 17:48:01;;;;;;;2.03;0.98;;;;;;;20.98;89.56;100315.00;20791485;28;20596;-63
2023/09/19 17:58:03;;;;;;;1.38;0.77;;;;;;;20.97;89.11;100307.88;20850052;28;20141;-63
2023/09/19 18:08:05;;;;;;;1.70;0.82;;;;;;;20.97;88.52;100312.44;20821254;28;20128;-63
2023/09/19 18:18:07;;;;;;;1.98;1.20;;;;;;;20.94;88.13;100329.88;20847015;28;20053;-63
2023/09/19 18:28:09;;;;;;;1.73;0.70;;;;;;;20.93;88.12;100343.56;20855005;28;20114;-63
2023/09/19 18:38:11;;;;;;;1.02;0.90;;;;;;;20.91;87.94;100341.03;20843374;28;20056;-63
2023/09/19 18:48:17;;;;;;;1.98;0.70;;;;;;;20.89;87.89;100343.06;20860070;28;20045;-63
2023/09/19 18:58:19;;;;;;;1.65;0.90;;;;;;;20.88;87.58;100341.38;20871102;28;20051;-63
2023/09/19 19:08:20;;;;;;;1.63;0.80;;;;;;;20.86;87.68;100338.84;20847928;28;20053;-62
2023/09/19 19:18:28;;;;;;;1.48;0.75;;;;;;;20.86;87.64;100327.19;20851886;28;20513;-63
2023/09/19 19:28:31;;;;;;;0.68;0.68;;;;;;;20.84;87.41;100345.44;20818534;28;20063;-62
2023/09/19 19:38:33;;;;;;;1.77;0.75;;;;;;;20.84;87.43;100337.34;20826417;28;20041;-62
2023/09/19 19:48:36;;;;;;;3.00;1.42;;;;;;;20.82;87.61;100332.06;20830835;28;20057;-63
2023/09/19 19:58:37;;;;;;;2.60;1.05;;;;;;;20.82;87.85;100333.94;20810942;28;20072;-62
2023/09/19 20:08:40;;;;;;;1.30;0.70;;;;;;;20.80;87.79;100350.34;20815046;28;20042;-62
2023/09/19 20:18:42;;;;;;;1.90;0.95;;;;;;;20.75;88.26;100343.69;20865354;28;20580;-62
2023/09/19 20:28:45;;;;;;;2.50;0.88;;;;;;;20.81;88.71;100354.72;20822305;28;20044;-63
2023/09/19 20:38:46;;;;;;;0.98;0.70;;;;;;;20.82;88.51;100356.44;20815275;28;20056;-62
2023/09/19 20:48:48;;;;;;;1.90;1.00;;;;;;;20.82;88.53;100352.88;20824726;28;20048;-63
2023/09/19 20:58:51;;;;;;;3.45;1.00;;;;;;;20.81;88.44;100346.63;20827896;28;20063;-63
2023/09/19 21:08:53;;;;;;;2.17;0.90;;;;;;;20.82;88.33;100352.88;20814724;28;20156;-63
2023/09/19 21:18:54;;;;;;;1.45;0.70;;;;;;;20.81;88.07;100334.97;20852427;28;20063;-63
2023/09/19 21:28:57;;;;;;;1.35;0.95;;;;;;;20.80;88.22;100339.53;20833305;28;20049;-63
2023/09/19 21:38:59;;;;;;;2.33;0.85;;;;;;;20.79;88.20;100337.81;20833251;28;20104;-63
2023/09/19 21:49:01;;;;;;;1.65;0.77;;;;;;;20.78;88.13;100325.28;20851599;28;20103;-63
2023/09/19 21:59:06;;;;;;;1.90;1.13;;;;;;;20.78;88.04;100329.88;20828380;28;20049;-63
2023/09/19 22:09:08;;;;;;;2.05;1.00;;;;;;;20.77;87.90;100339.81;20868253;28;20076;-63
2023/09/19 22:19:11;;;;;;;1.58;0.93;;;;;;;20.76;87.87;100338.13;20852050;28;20054;-63
2023/09/19 22:29:13;;;;;;;1.55;0.90;;;;;;;20.73;87.86;100333.06;20876874;28;20142;-63
2023/09/19 22:39:24;;;;;;;1.95;0.93;;;;;;;20.75;88.03;100330.19;20876800;28;20060;-63
2023/09/19 22:49:26;;;;;;;2.25;0.93;;;;;;;20.73;87.77;100323.06;20861191;28;20041;-63
2023/09/19 22:59:29;;;;;;;2.67;1.10;;;;;;;20.73;87.87;100341.19;20838672;28;20127;-62
2023/09/19 23:09:34;;;;;;;1.10;0.80;;;;;;;20.71;87.90;100333.22;20828608;28;20053;-63
2023/09/19 23:19:37;;;;;;;;;;;;;;;20.70;87.93;100342.34;20815480;28;20077;-62
2023/09/19 23:29:39;;;;;;;1.92;1.35;;;;;;;20.62;87.79;100333.41;20816821;28;19971;-62
2023/09/19 23:39:41;;;;;;;1.65;0.80;;;;;;;20.64;87.89;100345.72;20817011;28;20473;-63
2023/09/19 23:49:46;;;;;;;2.15;1.20;;;;;;;20.65;88.51;100352.00;20825469;28;20051;-63
2023/09/19 23:59:49;;;;;;;1.45;0.90;;;;;;;20.64;88.63;100353.03;20823445;28;20152;-62
